createdAt,value
2023-02-25T00:01:05.086Z,7.22
2023-02-25T00:04:07.234Z,7.87
2023-02-25T00:07:10.274Z,8.20
2023-02-25T00:10:15.359Z,8.60
2023-02-25T00:13:18.828Z,8.32
2023-02-25T00:16:23.216Z,7.90
2023-02-25T00:19:27.091Z,7.64
2023-02-25T00:22:29.071Z,7.80
2023-02-25T00:25:31.460Z,7.17
2023-02-25T00:28:36.150Z,7.17
2023-02-25T00:31:41.130Z,7.12
2023-02-25T00:34:44.647Z,6.65
2023-02-25T00:37:47.141Z,6.75
2023-02-25T00:40:49.676Z,6.76
2023-02-25T00:44:00.431Z,7.09
2023-02-25T00:47:03.787Z,6.81
2023-02-25T00:50:09.923Z,6.71
2023-02-25T00:53:12.142Z,6.68
2023-02-25T00:56:17.139Z,6.84
2023-02-25T00:59:19.255Z,6.37
2023-02-25T01:02:22.003Z,6.27
2023-02-25T01:05:24.435Z,6.27
2023-02-25T01:08:28.831Z,6.35
2023-02-25T01:11:34.417Z,6.51
2023-02-25T01:14:37.576Z,6.51
2023-02-25T01:17:40.043Z,6.79
2023-02-25T01:20:42.328Z,6.03
2023-02-25T01:23:49.121Z,5.83
2023-02-25T01:26:54.769Z,5.97
2023-02-25T01:29:56.800Z,6.17
2023-02-25T01:32:59.229Z,6.44
2023-02-25T01:36:02.136Z,6.51
2023-02-25T01:39:05.417Z,6.61
2023-02-25T01:42:15.185Z,6.96
2023-02-25T01:45:20.775Z,7.20
2023-02-25T01:48:26.852Z,7.19
2023-02-25T01:51:32.032Z,7.31
2023-02-25T01:54:39.704Z,6.81
2023-02-25T01:57:42.093Z,7.10
2023-02-25T02:00:44.707Z,7.30
2023-02-25T02:03:48.111Z,7.29
2023-02-25T02:06:51.819Z,6.93
2023-02-25T02:09:57.220Z,6.38
2023-02-25T02:12:59.388Z,6.52
2023-02-25T02:16:11.806Z,6.37
2023-02-25T02:19:34.431Z,6.48
2023-02-25T02:22:52.282Z,6.44
2023-02-25T02:26:15.032Z,6.55
2023-02-25T02:29:47.183Z,6.92
2023-02-25T02:33:04.274Z,6.78
2023-02-25T02:37:01.048Z,6.24
2023-02-25T02:40:15.800Z,6.52
2023-02-25T02:43:27.102Z,6.64
2023-02-25T02:46:38.583Z,6.52
2023-02-25T02:49:53.931Z,6.71
2023-02-25T02:52:58.941Z,6.82
2023-02-25T02:56:02.947Z,6.89
2023-02-25T02:59:19.812Z,6.88
2023-02-25T03:02:35.173Z,6.91
2023-02-25T03:05:40.121Z,6.78
2023-02-25T03:08:50.367Z,6.88
2023-02-25T03:11:53.716Z,6.76
2023-02-25T03:14:56.830Z,6.81
2023-02-25T03:18:23.729Z,6.76
2023-02-25T03:21:32.045Z,7.00
2023-02-25T03:24:50.593Z,6.89
2023-02-25T03:27:57.089Z,6.71
2023-02-25T03:31:27.265Z,7.22
2023-02-25T03:34:36.875Z,7.34
2023-02-25T03:37:41.907Z,7.05
2023-02-25T03:40:49.490Z,6.22
2023-02-25T03:43:56.396Z,6.42
2023-02-25T03:47:01.795Z,6.35
2023-02-25T03:50:12.858Z,6.71
2023-02-25T03:53:17.753Z,6.93
2023-02-25T03:56:30.642Z,7.17
2023-02-25T03:59:33.622Z,6.95
2023-02-25T04:02:36.055Z,6.76
2023-02-25T04:05:39.721Z,7.05
2023-02-25T04:08:42.538Z,7.22
2023-02-25T04:11:44.965Z,6.68
2023-02-25T04:14:46.999Z,6.79
2023-02-25T04:17:50.066Z,6.68
2023-02-25T04:20:52.900Z,6.64
2023-02-25T04:23:56.348Z,6.59
2023-02-25T04:27:00.595Z,6.68
2023-02-25T04:30:03.088Z,6.52
2023-02-25T04:33:06.192Z,6.27
2023-02-25T04:36:23.781Z,6.30
2023-02-25T04:39:26.022Z,6.40
2023-02-25T04:42:28.581Z,6.71
2023-02-25T04:45:30.924Z,6.79
2023-02-25T04:48:33.462Z,6.92
2023-02-25T04:51:36.277Z,6.95
2023-02-25T04:54:39.154Z,6.96
2023-02-25T04:57:42.521Z,6.34
2023-02-25T05:00:49.116Z,6.64
2023-02-25T05:03:57.347Z,6.52
2023-02-25T05:06:59.750Z,6.68
2023-02-25T05:10:01.952Z,6.89
2023-02-25T05:13:04.310Z,6.72
2023-02-25T05:16:09.311Z,6.41
2023-02-25T05:19:23.794Z,6.42
2023-02-25T05:22:27.483Z,6.13
2023-02-25T05:25:31.635Z,6.67
2023-02-25T05:28:33.885Z,6.81
2023-02-25T05:31:36.461Z,6.95
2023-02-25T05:34:38.976Z,7.00
2023-02-25T05:37:41.950Z,6.85
2023-02-25T05:40:44.313Z,6.79
2023-02-25T05:43:47.214Z,6.97
2023-02-25T05:46:49.147Z,7.02
2023-02-25T05:49:51.678Z,7.22
2023-02-25T05:52:53.722Z,7.36
2023-02-25T05:55:56.934Z,7.34
2023-02-25T05:58:59.494Z,7.22
2023-02-25T06:02:02.903Z,6.96
2023-02-25T06:05:05.584Z,6.79
2023-02-25T06:08:10.201Z,6.56
2023-02-25T06:11:17.414Z,6.85
2023-02-25T06:14:19.814Z,7.24
2023-02-25T06:17:22.171Z,6.81
2023-02-25T06:20:25.466Z,6.84
2023-02-25T06:23:27.466Z,6.69
2023-02-25T06:26:30.313Z,6.56
2023-02-25T06:29:32.711Z,6.07
2023-02-25T06:32:35.656Z,6.13
2023-02-25T06:35:38.544Z,5.94
2023-02-25T06:38:41.912Z,5.94
2023-02-25T06:41:45.507Z,5.91
2023-02-25T06:44:49.977Z,5.86
2023-02-25T06:47:52.356Z,5.86
2023-02-25T06:50:54.641Z,6.06
2023-02-25T06:53:57.026Z,6.17
2023-02-25T06:57:01.302Z,6.21
2023-02-25T07:00:06.070Z,6.28
2023-02-25T07:03:11.649Z,6.06
2023-02-25T07:06:18.660Z,6.28
2023-02-25T07:09:21.037Z,6.18
2023-02-25T07:12:23.632Z,6.07
2023-02-25T07:15:26.370Z,6.30
2023-02-25T07:18:28.767Z,6.35
2023-02-25T07:21:31.708Z,6.34
2023-02-25T07:24:33.905Z,6.10
2023-02-25T07:27:36.374Z,6.09
2023-02-25T07:30:38.416Z,6.14
2023-02-25T07:33:41.992Z,6.27
2023-02-25T07:36:43.931Z,5.96
2023-02-25T07:39:47.861Z,5.73
2023-02-25T07:42:51.298Z,6.18
2023-02-25T07:45:58.326Z,5.85
2023-02-25T07:49:01.164Z,6.18
2023-02-25T07:52:03.734Z,6.34
2023-02-25T07:55:07.155Z,6.30
2023-02-25T07:58:09.722Z,6.69
2023-02-25T08:01:16.690Z,8.24
2023-02-25T08:04:19.228Z,8.50
2023-02-25T08:07:21.602Z,8.29
2023-02-25T08:10:24.817Z,7.53
2023-02-25T08:13:26.824Z,7.16
2023-02-25T08:16:29.415Z,6.74
2023-02-25T08:19:32.247Z,6.32
2023-02-25T08:22:34.877Z,6.37
2023-02-25T08:25:37.673Z,6.72
2023-02-25T08:28:40.502Z,6.62
2023-02-25T08:31:43.311Z,6.40
2023-02-25T08:34:48.666Z,6.45
2023-02-25T08:37:52.421Z,6.14
2023-02-25T08:40:56.025Z,6.20
2023-02-25T08:44:00.778Z,6.37
2023-02-25T08:47:05.616Z,6.25
2023-02-25T08:50:08.611Z,6.25
2023-02-25T08:53:12.683Z,6.72
2023-02-25T08:56:16.947Z,6.54
2023-02-25T08:59:20.040Z,6.72
2023-02-25T09:02:24.390Z,7.16
2023-02-25T09:05:26.957Z,6.95
2023-02-25T09:08:29.720Z,7.02
2023-02-25T09:11:32.909Z,7.26
2023-02-25T09:14:37.878Z,7.98
2023-02-25T09:17:41.140Z,7.51
2023-02-25T09:20:43.280Z,7.66
2023-02-25T09:23:47.129Z,8.52
2023-02-25T09:26:49.148Z,8.94
2023-02-25T09:29:51.729Z,10.60
2023-02-25T09:32:54.184Z,11.82
2023-02-25T09:36:08.758Z,12.85
2023-02-25T09:39:10.978Z,13.56
2023-02-25T09:42:22.719Z,14.10
2023-02-25T09:45:26.353Z,12.14
2023-02-25T09:48:35.637Z,11.73
2023-02-25T09:51:43.678Z,10.91
2023-02-25T09:54:56.111Z,9.81
2023-02-25T09:58:44.819Z,9.21
2023-02-25T10:02:38.319Z,9.27
2023-02-25T10:05:46.515Z,9.82
2023-02-25T10:09:21.704Z,9.55
2023-02-25T10:12:50.391Z,9.21
2023-02-25T10:16:17.445Z,9.13
2023-02-25T10:19:41.698Z,9.79
2023-02-25T10:22:57.319Z,9.71
2023-02-25T10:26:25.240Z,9.74
2023-02-25T10:29:39.444Z,9.06
2023-02-25T10:32:45.400Z,9.62
2023-02-25T10:35:54.917Z,10.94
2023-02-25T10:39:05.357Z,11.21
2023-02-25T10:42:16.981Z,11.10
2023-02-25T10:45:26.640Z,11.42
2023-02-25T10:48:29.938Z,11.79
2023-02-25T10:51:32.047Z,11.99
2023-02-25T10:54:44.536Z,12.48
2023-02-25T10:57:46.713Z,11.04
2023-02-25T11:01:05.743Z,9.39
2023-02-25T11:04:18.094Z,10.23
2023-02-25T11:07:43.633Z,11.31
2023-02-25T11:11:14.285Z,12.01
2023-02-25T11:14:17.085Z,12.37
2023-02-25T11:17:21.093Z,11.70
2023-02-25T11:20:30.163Z,10.80
2023-02-25T11:23:49.097Z,10.32
2023-02-25T11:26:52.595Z,10.19
2023-02-25T11:30:02.666Z,9.48
2023-02-25T11:33:15.212Z,9.78
2023-02-25T11:36:24.178Z,10.02
2023-02-25T11:39:30.812Z,11.42
2023-02-25T11:42:33.138Z,12.12
2023-02-25T11:45:47.001Z,10.06
2023-02-25T11:49:18.939Z,8.97
2023-02-25T11:52:27.713Z,9.65
2023-02-25T11:55:41.886Z,10.75
2023-02-25T11:59:03.477Z,11.03
2023-02-25T12:03:20.209Z,11.72
2023-02-25T12:06:31.557Z,11.52
2023-02-25T12:09:57.420Z,11.00
2023-02-25T12:13:45.479Z,11.07
2023-02-25T12:16:59.556Z,12.07
2023-02-25T12:20:46.944Z,12.20
2023-02-25T12:24:51.697Z,12.44
2023-02-25T12:28:28.283Z,12.21
2023-02-25T12:32:06.032Z,11.62
2023-02-25T12:35:49.570Z,12.29
2023-02-25T12:39:16.026Z,12.62
2023-02-25T12:42:50.754Z,11.07
2023-02-25T12:46:23.256Z,12.72
2023-02-25T12:49:44.596Z,10.98
2023-02-25T12:53:23.854Z,10.44
2023-02-25T12:57:29.164Z,9.99
2023-02-25T13:01:02.214Z,10.06
2023-02-25T13:04:28.678Z,10.61
2023-02-25T13:07:37.135Z,10.78
2023-02-25T13:10:51.399Z,10.17
2023-02-25T13:14:15.592Z,10.00
2023-02-25T13:17:56.808Z,10.03
2023-02-25T13:21:28.406Z,9.23
2023-02-25T13:24:39.478Z,9.45
2023-02-25T13:28:06.315Z,9.52
2023-02-25T13:31:35.289Z,10.52
2023-02-25T13:35:03.366Z,11.03
2023-02-25T13:38:23.963Z,9.61
2023-02-25T13:41:53.603Z,10.19
2023-02-25T13:45:26.912Z,10.02
2023-02-25T13:48:51.028Z,10.47
2023-02-25T13:52:41.334Z,11.54
2023-02-25T13:56:05.868Z,12.06
2023-02-25T13:59:17.359Z,11.46
2023-02-25T14:02:41.922Z,11.36
2023-02-25T14:06:15.052Z,9.65
2023-02-25T14:09:30.069Z,10.39
2023-02-25T14:12:44.646Z,12.00
2023-02-25T14:16:11.607Z,11.72
2023-02-25T14:19:44.048Z,9.98
2023-02-25T14:23:08.353Z,10.26
2023-02-25T14:26:32.449Z,10.43
2023-02-25T14:30:05.430Z,11.99
2023-02-25T14:33:13.825Z,12.27
2023-02-25T14:36:39.166Z,11.86
2023-02-25T14:40:00.020Z,11.52
2023-02-25T14:43:30.647Z,11.38
2023-02-25T14:46:48.537Z,11.52
2023-02-25T14:49:58.273Z,10.83
2023-02-25T14:53:26.321Z,10.81
2023-02-25T14:56:58.127Z,9.74
2023-02-25T15:00:34.821Z,9.06
2023-02-25T15:04:14.494Z,9.20
2023-02-25T15:07:37.314Z,9.71
2023-02-25T15:11:12.111Z,11.07
2023-02-25T15:14:26.413Z,10.87
2023-02-25T15:18:00.099Z,11.28
2023-02-25T15:21:31.810Z,9.17
2023-02-25T15:24:41.349Z,10.08
2023-02-25T15:27:49.773Z,10.75
2023-02-25T15:31:00.736Z,10.67
2023-02-25T15:38:47.400Z,11.66
2023-02-25T15:42:04.144Z,12.45
2023-02-25T15:45:30.753Z,11.69
2023-02-25T15:48:36.304Z,11.90
2023-02-25T15:51:48.697Z,11.62
2023-02-25T15:54:51.218Z,12.44
2023-02-25T15:57:53.810Z,13.46
2023-02-25T16:01:08.259Z,13.56
2023-02-25T16:04:44.057Z,13.70
2023-02-25T16:08:12.282Z,13.56
2023-02-25T16:11:33.552Z,14.20
2023-02-25T16:14:41.277Z,13.91
2023-02-25T16:17:44.619Z,13.77
2023-02-25T16:20:50.674Z,14.54
2023-02-25T16:23:55.259Z,14.31
2023-02-25T16:31:18.739Z,14.65
2023-02-25T16:34:51.630Z,14.92
2023-02-25T16:38:17.331Z,14.98
2023-02-25T16:41:22.217Z,15.06
2023-02-25T16:44:41.208Z,15.04
2023-02-25T16:47:43.832Z,15.81
2023-02-25T16:51:05.609Z,16.01
2023-02-25T16:54:36.231Z,15.97
2023-02-25T16:57:38.877Z,15.90
2023-02-25T17:01:01.898Z,15.88
2023-02-25T17:04:21.493Z,16.00
2023-02-25T17:07:26.386Z,16.15
2023-02-25T17:11:07.123Z,16.04
2023-02-25T17:14:12.217Z,16.12
2023-02-25T17:17:27.713Z,15.91
2023-02-25T17:20:31.265Z,15.40
2023-02-25T17:23:41.797Z,15.47
2023-02-25T17:26:47.190Z,15.23
2023-02-25T17:29:50.256Z,14.46
2023-02-25T17:32:59.429Z,13.42
2023-02-25T17:36:14.515Z,12.75
2023-02-25T17:39:19.498Z,12.30
2023-02-25T17:42:28.990Z,12.16
2023-02-25T17:45:46.166Z,12.20
2023-02-25T17:48:55.500Z,12.04
2023-02-25T17:52:04.611Z,12.78
2023-02-25T17:55:26.066Z,13.26
2023-02-25T17:58:28.027Z,12.65
2023-02-25T18:01:45.737Z,12.40
2023-02-25T18:04:48.252Z,12.44
2023-02-25T18:08:15.572Z,12.95
2023-02-25T18:11:24.530Z,12.95
2023-02-25T18:14:38.849Z,12.84
2023-02-25T18:17:42.816Z,12.72
2023-02-25T18:20:47.545Z,12.17
2023-02-25T18:23:53.809Z,12.20
2023-02-25T18:27:22.653Z,13.29
2023-02-25T18:30:27.167Z,13.65
2023-02-25T18:33:29.802Z,13.29
2023-02-25T18:36:32.471Z,13.47
2023-02-25T18:39:37.428Z,13.49
2023-02-25T18:42:39.975Z,14.38
2023-02-25T18:45:42.921Z,14.44
2023-02-25T18:48:44.939Z,13.76
2023-02-25T18:51:49.750Z,14.10
2023-02-25T18:54:52.277Z,13.38
2023-02-25T18:57:54.991Z,12.29
2023-02-25T19:00:59.454Z,11.97
2023-02-25T19:04:02.305Z,11.58
2023-02-25T19:07:11.510Z,11.38
2023-02-25T19:10:21.036Z,11.82
2023-02-25T19:13:37.596Z,12.27
2023-02-25T19:16:49.365Z,12.55
2023-02-25T19:19:54.909Z,12.91
2023-02-25T19:27:28.158Z,12.58
2023-02-25T19:30:36.708Z,12.45
2023-02-25T19:33:41.711Z,12.34
2023-02-25T19:36:44.061Z,11.90
2023-02-25T19:39:47.831Z,11.36
2023-02-25T19:42:53.008Z,10.71
2023-02-25T19:45:55.105Z,9.99
2023-02-25T19:48:59.328Z,9.65
2023-02-25T19:52:03.013Z,9.55
2023-02-25T19:55:08.014Z,9.18
2023-02-25T19:58:10.508Z,9.14
2023-02-25T20:01:16.091Z,8.81
2023-02-25T20:04:28.987Z,8.80
2023-02-25T20:07:33.690Z,9.00
2023-02-25T20:10:36.046Z,9.51
2023-02-25T20:13:40.620Z,9.69
2023-02-25T20:16:43.190Z,9.71
2023-02-25T20:19:47.068Z,9.45
2023-02-25T20:22:50.635Z,9.17
2023-02-25T20:26:03.687Z,9.38
2023-02-25T20:29:06.563Z,9.52
2023-02-25T20:32:09.384Z,9.59
2023-02-25T20:35:21.795Z,9.71
2023-02-25T20:38:36.054Z,9.61
2023-02-25T20:41:42.455Z,9.11
2023-02-25T20:44:45.403Z,8.84
2023-02-25T20:47:47.889Z,8.93
2023-02-25T20:50:51.526Z,9.08
2023-02-25T20:53:54.325Z,9.55
2023-02-25T20:56:56.906Z,9.72
2023-02-25T20:59:58.920Z,9.91
2023-02-25T21:03:01.605Z,10.06
2023-02-25T21:06:04.003Z,10.81
2023-02-25T21:09:07.384Z,10.61
2023-02-25T21:12:10.670Z,10.85
2023-02-25T21:15:13.220Z,10.56
2023-02-25T21:18:15.579Z,10.24
2023-02-25T21:21:20.833Z,10.77
2023-02-25T21:24:23.855Z,10.85
2023-02-25T21:27:26.793Z,10.75
2023-02-25T21:30:29.379Z,10.77
2023-02-25T21:33:33.533Z,10.84
2023-02-25T21:36:38.674Z,11.29
2023-02-25T21:39:41.548Z,11.99
2023-02-25T21:42:44.241Z,12.03
2023-02-25T21:46:15.538Z,11.68
2023-02-25T21:49:17.800Z,11.15
2023-02-25T21:52:20.386Z,10.81
2023-02-25T21:55:23.204Z,10.87
2023-02-25T21:58:25.509Z,11.15
2023-02-25T22:01:31.121Z,12.62
2023-02-25T22:04:33.978Z,11.66
2023-02-25T22:07:36.919Z,10.98
2023-02-25T22:10:40.912Z,10.61
2023-02-25T22:13:43.533Z,9.79
2023-02-25T22:16:45.848Z,9.03
2023-02-25T22:19:47.977Z,8.70
2023-02-25T22:22:50.955Z,8.67
2023-02-25T22:25:53.026Z,8.65
2023-02-25T22:28:58.138Z,8.81
2023-02-25T22:32:00.504Z,8.96
2023-02-25T22:35:03.994Z,9.48
2023-02-25T22:38:06.698Z,9.39
2023-02-25T22:41:20.512Z,9.20
2023-02-25T22:44:22.942Z,9.24
2023-02-25T22:47:25.655Z,9.55
2023-02-25T22:50:29.685Z,9.63
2023-02-25T22:53:33.302Z,9.89
2023-02-25T22:56:35.383Z,9.82
2023-02-25T22:59:38.170Z,9.77
2023-02-25T23:02:40.278Z,9.83
2023-02-25T23:05:43.045Z,10.39
2023-02-25T23:08:45.416Z,10.24
2023-02-25T23:11:47.865Z,10.39
2023-02-25T23:14:49.974Z,10.53
2023-02-25T23:17:52.448Z,10.85
2023-02-25T23:20:54.895Z,11.66
2023-02-25T23:23:59.099Z,12.16
2023-02-25T23:27:01.416Z,12.17
2023-02-25T23:30:05.362Z,11.79
2023-02-25T23:33:07.394Z,11.55
2023-02-25T23:36:10.648Z,11.11
2023-02-25T23:39:14.078Z,10.52
2023-02-25T23:42:16.394Z,10.32
2023-02-25T23:45:18.426Z,11.38
2023-02-25T23:48:21.304Z,12.00
2023-02-25T23:51:25.771Z,12.47
2023-02-25T23:54:28.033Z,13.25
2023-02-25T23:57:30.408Z,14.22
